createdAt,value
2022-11-29T00:01:33.179Z,101491.13
2022-11-29T00:04:00.050Z,101484.25
2022-11-29T00:06:30.020Z,101490.31
2022-11-29T00:08:58.874Z,101487.72
2022-11-29T00:11:51.091Z,101482.53
2022-11-29T00:14:19.786Z,101496.41
2022-11-29T00:16:59.230Z,101501.50
2022-11-29T00:19:25.965Z,101505.00
2022-11-29T00:21:52.454Z,101512.81
2022-11-29T00:24:19.023Z,101514.56
2022-11-29T00:26:45.777Z,101506.78
2022-11-29T00:29:13.141Z,101508.47
2022-11-29T00:31:41.110Z,101510.19
2022-11-29T00:34:08.062Z,101506.72
2022-11-29T00:36:35.574Z,101509.31
2022-11-29T00:39:04.125Z,101514.50
2022-11-29T00:41:31.161Z,101510.19
2022-11-29T00:43:57.775Z,101512.78
2022-11-29T00:46:25.296Z,101511.03
2022-11-29T00:48:51.867Z,101514.50
2022-11-29T00:51:18.512Z,101504.13
2022-11-29T00:53:45.380Z,101503.31
2022-11-29T00:56:12.296Z,101505.16
2022-11-29T00:58:38.978Z,101501.69
2022-11-29T01:01:06.338Z,101506.03
2022-11-29T01:03:33.073Z,101507.72
2022-11-29T01:06:06.020Z,101506.81
2022-11-29T01:08:32.695Z,101513.78
2022-11-29T01:11:03.208Z,101515.50
2022-11-29T01:13:29.678Z,101511.22
2022-11-29T01:15:58.153Z,101510.38
2022-11-29T01:18:25.123Z,101508.66
2022-11-29T01:21:00.274Z,101511.22
2022-11-29T01:23:27.739Z,101517.31
2022-11-29T01:26:00.355Z,101517.22
2022-11-29T01:28:28.198Z,101529.34
2022-11-29T01:30:55.644Z,101532.78
2022-11-29T01:33:24.269Z,101534.50
2022-11-29T01:35:53.605Z,101535.34
2022-11-29T01:38:21.837Z,101538.84
2022-11-29T01:41:18.358Z,101530.97
2022-11-29T01:44:14.057Z,101534.50
2022-11-29T01:46:47.878Z,101543.25
2022-11-29T01:49:32.473Z,101543.28
2022-11-29T01:52:14.437Z,101544.25
2022-11-29T01:54:53.128Z,101540.84
2022-11-29T01:57:21.988Z,101538.31
2022-11-29T01:59:56.216Z,101546.03
2022-11-29T02:02:36.766Z,101551.22
2022-11-29T02:05:04.649Z,101558.22
2022-11-29T02:07:31.302Z,101558.28
2022-11-29T02:09:57.893Z,101559.06
2022-11-29T02:12:48.452Z,101559.84
2022-11-29T02:15:22.495Z,101552.09
2022-11-29T02:18:07.616Z,101559.03
2022-11-29T02:20:59.164Z,101554.06
2022-11-29T02:23:25.577Z,101549.88
2022-11-29T02:26:18.883Z,101556.75
2022-11-29T02:29:07.681Z,101559.31
2022-11-29T02:32:11.323Z,101561.88
2022-11-29T02:34:53.528Z,101558.38
2022-11-29T02:37:38.272Z,101562.72
2022-11-29T02:40:28.360Z,101555.75
2022-11-29T02:43:14.809Z,101564.53
2022-11-29T02:45:53.568Z,101574.00
2022-11-29T02:48:54.298Z,101570.53
2022-11-29T02:51:44.023Z,101584.44
2022-11-29T02:54:37.734Z,101574.88
2022-11-29T02:57:23.879Z,101578.31
2022-11-29T03:00:02.445Z,101585.34
2022-11-29T03:02:51.051Z,101594.75
2022-11-29T03:05:30.326Z,101593.13
2022-11-29T03:08:19.752Z,101599.19
2022-11-29T03:11:18.412Z,101593.19
2022-11-29T03:13:56.480Z,101591.50
2022-11-29T03:16:42.572Z,101586.22
2022-11-29T03:19:31.014Z,101592.19
2022-11-29T03:22:06.536Z,101595.63
2022-11-29T03:24:45.931Z,101598.28
2022-11-29T03:27:23.055Z,101600.91
2022-11-29T03:29:56.878Z,101601.78
2022-11-29T03:32:29.018Z,101599.16
2022-11-29T03:34:58.385Z,101605.19
2022-11-29T03:37:53.106Z,101613.84
2022-11-29T03:40:25.573Z,101607.78
2022-11-29T03:43:09.036Z,101616.34
2022-11-29T03:45:53.675Z,101621.53
2022-11-29T03:48:41.048Z,101619.84
2022-11-29T03:51:12.104Z,101625.03
2022-11-29T03:54:02.850Z,101626.81
2022-11-29T03:56:38.519Z,101628.63
2022-11-29T03:59:24.230Z,101632.84
2022-11-29T04:02:09.319Z,101631.22
2022-11-29T04:05:11.269Z,101641.56
2022-11-29T04:08:01.092Z,101644.97
2022-11-29T04:11:01.455Z,101645.84
2022-11-29T04:13:40.099Z,101647.69
2022-11-29T04:16:39.847Z,101649.47
2022-11-29T04:19:29.180Z,101646.88
2022-11-29T04:21:58.313Z,101646.13
2022-11-29T04:24:52.659Z,101654.78
2022-11-29T04:27:37.962Z,101658.25
2022-11-29T04:30:04.259Z,101655.78
2022-11-29T04:32:49.312Z,101660.00
2022-11-29T04:35:38.824Z,101658.22
2022-11-29T04:38:29.388Z,101660.78
2022-11-29T04:41:40.811Z,101653.97
2022-11-29T04:44:45.054Z,101653.97
2022-11-29T04:47:23.885Z,101659.06
2022-11-29T04:50:08.796Z,101663.34
2022-11-29T04:52:49.321Z,101668.44
2022-11-29T04:55:35.392Z,101670.25
2022-11-29T04:58:43.976Z,101671.88
2022-11-29T05:01:22.261Z,101677.94
2022-11-29T05:04:04.958Z,101679.72
2022-11-29T05:07:11.735Z,101678.00
2022-11-29T05:10:10.129Z,101682.31
2022-11-29T05:12:55.586Z,101688.38
2022-11-29T05:15:49.812Z,101694.38
2022-11-29T05:18:53.746Z,101698.81
2022-11-29T05:21:48.127Z,101699.72
2022-11-29T05:24:34.262Z,101704.03
2022-11-29T05:27:09.764Z,101710.16
2022-11-29T05:29:46.803Z,101709.25
2022-11-29T05:32:32.565Z,101706.66
2022-11-29T05:35:28.915Z,101708.31
2022-11-29T05:38:06.092Z,101714.41
2022-11-29T05:41:13.029Z,101717.81
2022-11-29T05:44:13.739Z,101721.31
2022-11-29T05:46:55.740Z,101722.22
2022-11-29T05:49:49.557Z,101733.38
2022-11-29T05:52:25.054Z,101733.50
2022-11-29T05:55:10.068Z,101735.19
2022-11-29T05:57:47.180Z,101741.25
2022-11-29T06:00:16.757Z,101737.84
2022-11-29T06:03:13.680Z,101736.09
2022-11-29T06:05:49.868Z,101743.81
2022-11-29T06:08:25.541Z,101743.75
2022-11-29T06:11:29.605Z,101746.34
2022-11-29T06:14:25.929Z,101756.69
2022-11-29T06:17:01.735Z,101751.59
2022-11-29T06:19:56.720Z,101748.06
2022-11-29T06:22:50.337Z,101754.06
2022-11-29T06:26:03.998Z,101754.94
2022-11-29T06:28:44.000Z,101758.47
2022-11-29T06:31:31.789Z,101757.63
2022-11-29T06:34:10.330Z,101766.22
2022-11-29T06:36:48.335Z,101767.16
2022-11-29T06:39:14.960Z,101772.47
2022-11-29T06:41:41.308Z,101769.91
2022-11-29T06:44:08.461Z,101777.69
2022-11-29T06:46:47.043Z,101780.38
2022-11-29T06:49:23.933Z,101783.88
2022-11-29T06:52:18.005Z,101786.47
2022-11-29T06:55:08.862Z,101796.03
2022-11-29T06:57:59.727Z,101802.19
2022-11-29T07:00:31.984Z,101809.22
2022-11-29T07:03:43.618Z,101811.69
2022-11-29T07:06:25.342Z,101817.66
2022-11-29T07:08:56.472Z,101817.69
2022-11-29T07:11:23.181Z,101816.88
2022-11-29T07:13:49.771Z,101815.97
2022-11-29T07:16:22.692Z,101832.44
2022-11-29T07:19:15.071Z,101833.34
2022-11-29T07:21:55.894Z,101833.34
2022-11-29T07:24:33.030Z,101839.28
2022-11-29T07:27:08.507Z,101847.06
2022-11-29T07:29:46.042Z,101847.13
2022-11-29T07:32:34.313Z,101855.78
2022-11-29T07:35:28.443Z,101855.78
2022-11-29T07:38:10.119Z,101862.72
2022-11-29T07:40:49.631Z,101861.88
2022-11-29T07:43:37.119Z,101865.38
2022-11-29T07:46:03.662Z,101872.34
2022-11-29T07:48:30.146Z,101872.41
2022-11-29T07:50:56.937Z,101876.72
2022-11-29T07:53:24.470Z,101875.00
2022-11-29T07:55:51.411Z,101875.81
2022-11-29T07:58:18.659Z,101874.09
2022-11-29T08:00:45.693Z,101887.06
2022-11-29T08:03:12.762Z,101885.31
2022-11-29T08:05:40.338Z,101884.41
2022-11-29T08:08:06.881Z,101884.34
2022-11-29T08:10:34.214Z,101890.34
2022-11-29T08:13:00.654Z,101891.16
2022-11-29T08:15:27.512Z,101897.25
2022-11-29T08:17:53.865Z,101905.88
2022-11-29T08:20:20.594Z,101897.19
2022-11-29T08:22:57.750Z,101904.94
2022-11-29T08:25:25.402Z,101901.50
2022-11-29T08:27:52.179Z,101900.56
2022-11-29T08:30:22.068Z,101904.81
2022-11-29T08:32:51.674Z,101906.47
2022-11-29T08:35:20.334Z,101899.56
2022-11-29T08:37:46.830Z,101904.72
2022-11-29T08:40:13.578Z,101900.34
2022-11-29T08:42:39.935Z,101906.31
2022-11-29T08:45:07.710Z,101905.50
2022-11-29T08:47:37.029Z,101909.81
2022-11-29T08:50:12.138Z,101909.75
2022-11-29T08:52:59.789Z,101916.59
2022-11-29T08:55:29.023Z,101921.78
2022-11-29T08:58:02.711Z,101920.03
2022-11-29T09:00:29.085Z,101925.19
2022-11-29T09:02:55.467Z,101913.88
2022-11-29T09:05:21.899Z,101918.22
2022-11-29T09:07:48.319Z,101919.91
2022-11-29T09:10:14.804Z,101923.31
2022-11-29T09:12:41.357Z,101919.91
2022-11-29T09:15:11.133Z,101919.00
2022-11-29T09:17:37.570Z,101927.66
2022-11-29T09:20:05.270Z,101924.19
2022-11-29T09:22:31.810Z,101931.94
2022-11-29T09:24:58.204Z,101936.31
2022-11-29T09:27:24.570Z,101930.31
2022-11-29T09:29:50.932Z,101942.41
2022-11-29T09:34:44.822Z,101945.94
2022-11-29T09:37:11.500Z,101964.00
2022-11-29T09:39:38.306Z,101955.31
2022-11-29T09:42:12.453Z,101969.09
2022-11-29T09:45:01.132Z,101964.78
2022-11-29T09:47:49.612Z,101966.53
2022-11-29T09:50:36.217Z,101969.16
2022-11-29T09:53:15.896Z,101976.13
2022-11-29T09:55:48.250Z,101972.53
2022-11-29T09:58:21.527Z,101981.84
2022-11-29T10:00:56.383Z,101976.69
2022-11-29T10:03:29.119Z,101975.72
2022-11-29T10:06:06.021Z,101980.00
2022-11-29T10:09:01.643Z,101981.56
2022-11-29T10:11:34.996Z,101983.25
2022-11-29T10:14:11.385Z,101984.88
2022-11-29T10:16:50.843Z,101989.16
2022-11-29T10:19:42.606Z,101985.66
2022-11-29T10:22:25.662Z,101990.00
2022-11-29T10:24:57.462Z,101987.41
2022-11-29T10:27:25.023Z,101986.56
2022-11-29T10:29:51.834Z,101983.94
2022-11-29T10:32:21.431Z,101979.59
2022-11-29T10:34:49.666Z,101980.38
2022-11-29T10:37:19.916Z,101986.28
2022-11-29T10:39:54.987Z,101980.19
2022-11-29T10:42:42.083Z,101979.28
2022-11-29T10:45:19.544Z,101987.78
2022-11-29T10:47:48.114Z,101983.63
2022-11-29T10:50:21.267Z,101983.69
2022-11-29T10:52:47.797Z,101976.75
2022-11-29T10:55:16.961Z,101981.97
2022-11-29T10:58:29.006Z,101983.56
2022-11-29T11:01:09.176Z,101980.75
2022-11-29T11:03:39.981Z,101979.84
2022-11-29T11:06:11.972Z,101981.47
2022-11-29T11:08:42.738Z,101987.47
2022-11-29T11:11:09.757Z,101981.50
2022-11-29T11:13:37.970Z,101987.50
2022-11-29T11:16:17.403Z,101972.59
2022-11-29T11:18:45.555Z,101978.47
2022-11-29T11:21:15.424Z,101972.25
2022-11-29T11:23:44.678Z,101975.81
2022-11-29T11:26:14.552Z,101979.22
2022-11-29T11:28:49.566Z,101981.78
2022-11-29T11:31:25.277Z,101981.94
2022-11-29T11:33:51.784Z,101983.00
2022-11-29T11:36:21.025Z,101986.44
2022-11-29T11:39:18.850Z,101984.75
2022-11-29T11:42:04.542Z,101984.06
2022-11-29T11:44:48.465Z,101988.44
2022-11-29T11:47:28.952Z,101990.69
2022-11-29T11:50:04.764Z,101979.28
2022-11-29T11:52:44.842Z,101989.59
2022-11-29T11:55:21.296Z,101988.66
2022-11-29T11:57:58.726Z,102000.47
2022-11-29T12:01:03.591Z,101996.81
2022-11-29T12:04:08.464Z,102002.19
2022-11-29T12:06:44.899Z,101998.81
2022-11-29T12:09:25.228Z,102002.84
2022-11-29T12:12:06.245Z,102004.31
2022-11-29T12:14:56.593Z,102001.44
2022-11-29T12:17:32.098Z,101996.28
2022-11-29T12:20:13.841Z,102006.69
2022-11-29T12:23:14.426Z,102012.94
2022-11-29T12:25:52.013Z,102018.38
2022-11-29T12:28:21.038Z,102021.00
2022-11-29T12:31:05.714Z,102022.63
2022-11-29T12:33:39.833Z,102020.81
2022-11-29T12:36:12.018Z,102025.88
2022-11-29T12:39:12.737Z,102031.94
2022-11-29T12:42:02.973Z,102035.38
2022-11-29T12:45:12.596Z,102040.59
2022-11-29T12:47:52.279Z,102040.56
2022-11-29T12:50:22.301Z,102042.31
2022-11-29T12:53:44.275Z,102041.34
2022-11-29T12:56:27.124Z,102040.44
2022-11-29T12:59:17.499Z,102046.44
2022-11-29T13:02:08.317Z,102047.34
2022-11-29T13:04:51.728Z,102047.41
2022-11-29T13:07:37.905Z,102045.78
2022-11-29T13:10:38.543Z,102053.41
2022-11-29T13:13:29.869Z,102048.97
2022-11-29T13:16:20.652Z,102049.00
2022-11-29T13:19:05.128Z,102052.53
2022-11-29T13:21:37.503Z,102048.22
2022-11-29T13:24:09.168Z,102056.81
2022-11-29T13:26:38.635Z,102058.47
2022-11-29T13:29:07.460Z,102052.41
2022-11-29T13:31:34.589Z,102057.63
2022-11-29T13:34:14.999Z,102058.53
2022-11-29T13:36:54.522Z,102061.16
2022-11-29T13:39:48.855Z,102060.25
2022-11-29T13:42:37.126Z,102060.19
2022-11-29T13:45:15.759Z,102066.22
2022-11-29T13:47:57.976Z,102064.50
2022-11-29T13:50:41.347Z,102067.06
2022-11-29T13:53:18.941Z,102063.59
2022-11-29T13:56:00.831Z,102061.81
2022-11-29T13:58:33.307Z,102064.44
2022-11-29T14:01:09.665Z,102069.66
2022-11-29T14:03:57.512Z,102061.16
2022-11-29T14:06:40.672Z,102061.91
2022-11-29T14:09:21.600Z,102061.88
2022-11-29T14:11:56.883Z,102063.66
2022-11-29T14:14:33.036Z,102057.72
2022-11-29T14:17:02.586Z,102056.09
2022-11-29T14:19:36.879Z,102062.34
2022-11-29T14:22:05.312Z,102055.66
2022-11-29T14:24:38.064Z,102059.28
2022-11-29T14:27:10.393Z,102065.53
2022-11-29T14:29:55.229Z,102065.69
2022-11-29T14:32:35.601Z,102061.50
2022-11-29T14:35:11.139Z,102069.38
2022-11-29T14:38:04.276Z,102067.69
2022-11-29T14:40:36.297Z,102072.13
2022-11-29T14:43:14.992Z,102077.38
2022-11-29T14:45:41.821Z,102074.97
2022-11-29T14:48:27.182Z,102071.53
2022-11-29T14:51:19.550Z,102079.34
2022-11-29T14:53:49.097Z,102085.44
2022-11-29T14:56:35.187Z,102082.88
2022-11-29T14:59:39.017Z,102081.28
2022-11-29T15:02:28.605Z,102078.78
2022-11-29T15:04:57.080Z,102079.72
2022-11-29T15:07:33.265Z,102077.19
2022-11-29T15:10:02.976Z,102078.16
2022-11-29T15:12:37.613Z,102075.63
2022-11-29T15:15:53.523Z,102079.09
2022-11-29T15:18:40.449Z,102079.09
2022-11-29T15:21:34.568Z,102079.19
2022-11-29T15:24:13.211Z,102089.63
2022-11-29T15:26:54.870Z,102084.56
2022-11-29T15:29:21.608Z,102084.69
2022-11-29T15:31:57.448Z,102087.28
2022-11-29T15:34:26.836Z,102091.66
2022-11-29T15:36:53.418Z,102091.75
2022-11-29T15:39:45.970Z,102100.31
2022-11-29T15:42:15.705Z,102104.69
2022-11-29T15:44:47.340Z,102098.59
2022-11-29T15:47:25.103Z,102100.31
2022-11-29T15:49:53.681Z,102103.78
2022-11-29T15:52:35.819Z,102111.50
2022-11-29T15:55:06.482Z,102117.56
2022-11-29T15:57:38.603Z,102114.16
2022-11-29T16:00:07.816Z,102112.44
2022-11-29T16:02:38.140Z,102115.06
2022-11-29T16:05:18.272Z,102114.22
2022-11-29T16:07:47.302Z,102120.22
2022-11-29T16:10:20.666Z,102115.88
2022-11-29T16:12:56.246Z,102118.47
2022-11-29T16:15:36.182Z,102116.72
2022-11-29T16:18:12.117Z,102120.22
2022-11-29T16:20:39.342Z,102119.41
2022-11-29T16:23:15.842Z,102126.28
2022-11-29T16:26:02.577Z,102122.75
2022-11-29T16:28:34.609Z,102117.56
2022-11-29T16:31:01.294Z,102127.06
2022-11-29T16:33:28.070Z,102121.00
2022-11-29T16:36:15.923Z,102128.75
2022-11-29T16:38:53.593Z,102128.75
2022-11-29T16:41:31.130Z,102127.91
2022-11-29T16:43:58.065Z,102136.53
2022-11-29T16:46:26.004Z,102133.09
2022-11-29T16:48:54.003Z,102130.44
2022-11-29T16:51:37.611Z,102127.81
2022-11-29T16:54:24.419Z,102127.78
2022-11-29T16:56:52.408Z,102134.75
2022-11-29T16:59:26.809Z,102128.75
2022-11-29T17:01:55.217Z,102130.44
2022-11-29T17:04:24.004Z,102133.88
2022-11-29T17:06:53.288Z,102139.94
2022-11-29T17:09:29.387Z,102144.19
2022-11-29T17:11:56.916Z,102139.84
2022-11-29T17:14:23.433Z,102145.03
2022-11-29T17:16:50.172Z,102144.19
2022-11-29T17:19:16.848Z,102145.88
2022-11-29T17:21:43.653Z,102141.63
2022-11-29T17:24:13.566Z,102144.19
2022-11-29T17:26:41.472Z,102141.59
2022-11-29T17:29:09.222Z,102148.47
2022-11-29T17:31:35.871Z,102143.28
2022-11-29T17:34:02.754Z,102147.63
2022-11-29T17:36:29.335Z,102143.28
2022-11-29T17:38:55.938Z,102151.94
2022-11-29T17:41:24.196Z,102155.38
2022-11-29T17:43:52.070Z,102158.81
2022-11-29T17:46:27.267Z,102162.22
2022-11-29T17:48:54.722Z,102158.81
2022-11-29T17:51:50.460Z,102155.31
2022-11-29T17:54:10.820Z,102156.19
2022-11-29T17:56:37.187Z,102154.44
2022-11-29T17:59:04.418Z,102158.75
2022-11-29T18:01:33.625Z,102163.06
2022-11-29T18:04:02.098Z,102157.88
2022-11-29T18:06:33.462Z,102168.25
2022-11-29T18:09:01.937Z,102166.50
2022-11-29T18:11:31.626Z,102168.25
2022-11-29T18:13:59.803Z,102174.28
2022-11-29T18:16:31.415Z,102182.06
2022-11-29T18:19:06.939Z,102171.69
2022-11-29T18:21:34.727Z,102182.06
2022-11-29T18:24:02.769Z,102181.22
2022-11-29T18:26:30.565Z,102187.25
2022-11-29T18:28:57.769Z,102188.97
2022-11-29T18:31:28.144Z,102187.25
2022-11-29T18:34:00.147Z,102188.94
2022-11-29T18:36:32.915Z,102192.41
2022-11-29T18:39:11.285Z,102190.69
2022-11-29T18:41:38.280Z,102191.59
2022-11-29T18:44:09.955Z,102193.31
2022-11-29T18:46:38.285Z,102196.78
2022-11-29T18:49:07.036Z,102202.81
2022-11-29T18:51:34.688Z,102201.09
2022-11-29T18:54:01.773Z,102201.09
2022-11-29T18:56:30.357Z,102195.94
2022-11-29T18:59:16.644Z,102203.69
2022-11-29T19:01:45.168Z,102209.72
2022-11-29T19:04:14.923Z,102209.72
2022-11-29T19:06:42.252Z,102214.91
2022-11-29T19:09:16.104Z,102212.25
2022-11-29T19:11:42.657Z,102211.41
2022-11-29T19:14:11.668Z,102206.22
2022-11-29T19:16:40.436Z,102213.09
2022-11-29T19:19:06.944Z,102207.94
2022-11-29T19:21:34.619Z,102208.81
2022-11-29T19:24:03.675Z,102213.97
2022-11-29T19:26:31.358Z,102211.41
2022-11-29T19:29:00.606Z,102213.13
2022-11-29T19:31:28.019Z,102218.34
2022-11-29T19:33:55.890Z,102220.09
2022-11-29T19:36:30.770Z,102216.59
2022-11-29T19:38:59.832Z,102220.09
2022-11-29T19:41:37.324Z,102213.16
2022-11-29T19:44:06.546Z,102223.53
2022-11-29T19:46:41.290Z,102224.38
2022-11-29T19:49:08.656Z,102224.41
2022-11-29T19:51:35.830Z,102224.41
2022-11-29T19:54:05.146Z,102222.69
2022-11-29T19:56:32.702Z,102220.94
2022-11-29T19:59:02.681Z,102232.22
2022-11-29T20:01:39.666Z,102228.78
2022-11-29T20:04:07.971Z,102233.97
2022-11-29T20:06:35.004Z,102239.09
2022-11-29T20:09:02.231Z,102233.91
2022-11-29T20:11:29.401Z,102234.78
2022-11-29T20:13:59.031Z,102239.06
2022-11-29T20:16:26.649Z,102245.09
2022-11-29T20:18:53.746Z,102246.84
2022-11-29T20:21:25.867Z,102241.66
2022-11-29T20:24:04.121Z,102245.06
2022-11-29T20:26:32.927Z,102244.25
2022-11-29T20:29:00.253Z,102243.38
2022-11-29T20:31:26.815Z,102243.38
2022-11-29T20:33:56.335Z,102242.53
2022-11-29T20:36:45.059Z,102242.47
2022-11-29T20:39:28.865Z,102241.59
2022-11-29T20:42:14.026Z,102250.25
2022-11-29T20:44:51.836Z,102245.91
2022-11-29T20:47:24.081Z,102255.41
2022-11-29T20:49:51.061Z,102253.72
2022-11-29T20:52:42.072Z,102257.13
2022-11-29T20:55:08.735Z,102262.34
2022-11-29T20:57:38.170Z,102259.75
2022-11-29T21:00:11.312Z,102258.03
2022-11-29T21:02:38.322Z,102270.13
2022-11-29T21:05:05.179Z,102271.84
2022-11-29T21:07:31.603Z,102268.41
2022-11-29T21:10:01.131Z,102271.88
2022-11-29T21:12:29.204Z,102264.09
2022-11-29T21:14:55.817Z,102277.03
2022-11-29T21:17:22.568Z,102270.16
2022-11-29T21:19:49.247Z,102278.78
2022-11-29T21:22:34.332Z,102274.47
2022-11-29T21:25:43.178Z,102281.31
2022-11-29T21:28:14.784Z,102285.66
2022-11-29T21:30:42.529Z,102289.16
2022-11-29T21:35:47.353Z,102289.09
2022-11-29T21:38:20.020Z,102286.50
2022-11-29T21:40:46.422Z,102289.97
2022-11-29T21:43:12.748Z,102292.56
2022-11-29T21:45:39.106Z,102288.25
2022-11-29T21:48:25.551Z,102289.16
2022-11-29T21:50:51.938Z,102286.56
2022-11-29T21:53:18.320Z,102299.50
2022-11-29T21:55:44.725Z,102297.78
2022-11-29T21:58:11.113Z,102299.50
2022-11-29T22:00:37.800Z,102299.50
2022-11-29T22:03:04.429Z,102298.69
2022-11-29T22:05:30.853Z,102302.09
2022-11-29T22:07:57.291Z,102299.53
2022-11-29T22:10:23.695Z,102305.56
2022-11-29T22:12:52.541Z,102306.41
2022-11-29T22:15:24.613Z,102301.22
2022-11-29T22:17:51.361Z,102303.81
2022-11-29T22:20:17.744Z,102305.53
2022-11-29T22:22:45.186Z,102309.00
2022-11-29T22:25:11.584Z,102308.97
2022-11-29T22:27:38.174Z,102309.84
2022-11-29T22:30:05.448Z,102314.19
2022-11-29T22:32:31.780Z,102308.19
2022-11-29T22:34:58.100Z,102318.53
2022-11-29T22:37:24.555Z,102304.72
2022-11-29T22:39:50.895Z,102315.94
2022-11-29T22:42:17.304Z,102303.88
2022-11-29T22:44:44.021Z,102303.88
2022-11-29T22:47:10.590Z,102313.41
2022-11-29T22:49:36.989Z,102320.34
2022-11-29T22:52:03.513Z,102311.69
2022-11-29T22:54:29.892Z,102316.94
2022-11-29T22:56:56.338Z,102318.66
2022-11-29T22:59:22.713Z,102316.09
2022-11-29T23:01:49.119Z,102323.03
2022-11-29T23:04:15.740Z,102328.16
2022-11-29T23:06:44.336Z,102327.28
2022-11-29T23:09:16.536Z,102329.91
2022-11-29T23:11:45.023Z,102326.47
2022-11-29T23:14:12.184Z,102329.06
2022-11-29T23:16:38.751Z,102329.97
2022-11-29T23:19:05.202Z,102327.38
2022-11-29T23:21:35.106Z,102332.56
2022-11-29T23:24:02.295Z,102331.69
2022-11-29T23:26:36.461Z,102332.56
2022-11-29T23:29:03.935Z,102341.28
2022-11-29T23:31:30.658Z,102332.66
2022-11-29T23:33:57.083Z,102331.78
2022-11-29T23:36:23.714Z,102329.19
2022-11-29T23:38:50.064Z,102329.16
2022-11-29T23:41:16.523Z,102328.28
2022-11-29T23:43:43.179Z,102332.66
2022-11-29T23:46:22.143Z,102346.44
2022-11-29T23:48:48.917Z,102333.50
2022-11-29T23:51:15.846Z,102339.59
2022-11-29T23:53:42.823Z,102332.72
2022-11-29T23:56:14.949Z,102333.50
2022-11-29T23:58:41.893Z,102338.75
